createdAt,value
2017-04-15T00:00:04.872Z,19.3
2017-04-15T00:02:05.622Z,19.3
2017-04-15T00:04:04.900Z,19.3
2017-04-15T00:06:05.509Z,19.3
2017-04-15T00:08:05.349Z,19.3
2017-04-15T00:10:07.701Z,19.3
2017-04-15T00:12:05.568Z,19.3
2017-04-15T00:14:04.861Z,19.3
2017-04-15T00:16:04.683Z,19.3
2017-04-15T00:18:04.803Z,19.3
2017-04-15T00:20:05.561Z,19.3
2017-04-15T00:22:06.583Z,19.3
2017-04-15T00:24:05.172Z,19.3
2017-04-15T00:26:07.439Z,19.3
2017-04-15T00:28:05.149Z,19.3
2017-04-15T00:30:05.243Z,19.3
2017-04-15T00:32:07.522Z,19.3
2017-04-15T00:34:05.362Z,19.3
2017-04-15T00:36:05.216Z,19.3
2017-04-15T00:38:05.497Z,19.3
2017-04-15T00:40:06.213Z,19.3
2017-04-15T00:42:05.612Z,19.3
2017-04-15T00:44:10.626Z,19.3
2017-04-15T00:46:05.347Z,19.3
2017-04-15T00:48:05.243Z,19.3
2017-04-15T00:50:05.117Z,19.3
2017-04-15T00:52:04.902Z,19.3
2017-04-15T00:54:05.081Z,19.3
2017-04-15T00:56:05.498Z,19.3
2017-04-15T00:58:05.226Z,19.3
2017-04-15T01:00:05.369Z,19.3
2017-04-15T01:02:04.889Z,19.3
2017-04-15T01:04:04.759Z,19.3
2017-04-15T01:06:05.874Z,19.3
2017-04-15T01:08:05.757Z,19.3
2017-04-15T01:10:05.548Z,19.3
2017-04-15T01:12:05.694Z,19.3
2017-04-15T01:14:05.586Z,19.3
2017-04-15T01:16:05.451Z,19.3
2017-04-15T01:18:05.286Z,19.3
2017-04-15T01:20:07.686Z,19.3
2017-04-15T01:22:05.457Z,19.3
2017-04-15T01:24:05.336Z,19.3
2017-04-15T01:26:05.101Z,19.3
2017-04-15T01:28:05.114Z,19.3
2017-04-15T01:30:05.041Z,19.2
2017-04-15T01:32:04.735Z,19.3
2017-04-15T01:34:04.964Z,19.3
2017-04-15T01:36:05.321Z,19.2
2017-04-15T01:38:07.591Z,19.3
2017-04-15T01:40:05.290Z,19.3
2017-04-15T01:42:06.274Z,19.3
2017-04-15T01:44:05.207Z,19.2
2017-04-15T01:46:04.858Z,19.2
2017-04-15T01:48:05.918Z,19.2
2017-04-15T01:50:08.168Z,19.3
2017-04-15T01:52:07.410Z,19.3
2017-04-15T01:54:05.309Z,19.2
2017-04-15T01:56:12.409Z,19.2
2017-04-15T01:58:05.103Z,19.2
2017-04-15T02:00:05.089Z,19.3
2017-04-15T02:02:07.287Z,19.2
2017-04-15T02:04:10.007Z,19.2
2017-04-15T02:06:05.107Z,19.2
2017-04-15T02:08:07.422Z,19.2
2017-04-15T02:10:04.640Z,19.2
2017-04-15T02:12:05.470Z,19.2
2017-04-15T02:14:05.130Z,19.2
2017-04-15T02:16:05.200Z,19.2
2017-04-15T02:18:05.475Z,19.2
2017-04-15T02:20:05.305Z,19.2
2017-04-15T02:22:05.156Z,19.2
2017-04-15T02:24:05.192Z,19.2
2017-04-15T02:26:07.382Z,19.2
2017-04-15T02:28:07.169Z,19.2
2017-04-15T02:30:05.186Z,19.2
2017-04-15T02:32:05.707Z,19.2
2017-04-15T02:34:07.692Z,19.2
2017-04-15T02:36:05.857Z,19.2
2017-04-15T02:38:05.540Z,19.2
2017-04-15T02:40:04.880Z,19.2
2017-04-15T02:42:05.890Z,19.2
2017-04-15T02:44:05.566Z,19.2
2017-04-15T02:46:05.271Z,19.2
2017-04-15T02:48:05.248Z,19.2
2017-04-15T02:50:05.495Z,19.2
2017-04-15T02:52:05.189Z,19.2
2017-04-15T02:54:05.019Z,19.2
2017-04-15T02:56:09.758Z,19.2
2017-04-15T02:58:05.421Z,19.2
2017-04-15T03:00:05.632Z,19.2
2017-04-15T03:02:05.408Z,19.2
2017-04-15T03:04:05.280Z,19.2
2017-04-15T03:06:05.738Z,19.2
2017-04-15T03:08:07.613Z,19.2
2017-04-15T03:10:05.292Z,19.2
2017-04-15T03:12:07.775Z,19.2
2017-04-15T03:14:05.039Z,19.2
2017-04-15T03:16:04.724Z,19.2
2017-04-15T03:18:04.993Z,19.2
2017-04-15T03:20:05.665Z,19.2
2017-04-15T03:22:05.364Z,19.2
2017-04-15T03:24:05.239Z,19.2
2017-04-15T03:26:04.974Z,19.2
2017-04-15T03:28:04.662Z,19.2
2017-04-15T03:30:05.714Z,19.2
2017-04-15T03:32:05.507Z,19.2
2017-04-15T03:34:07.768Z,19.2
2017-04-15T03:36:05.770Z,19.2
2017-04-15T03:38:05.436Z,19.2
2017-04-15T03:40:05.119Z,19.2
2017-04-15T03:42:05.109Z,19.2
2017-04-15T03:44:10.168Z,19.2
2017-04-15T03:46:05.017Z,19.2
2017-04-15T03:48:05.372Z,19.2
2017-04-15T03:50:05.028Z,19.2
2017-04-15T03:52:05.651Z,19.2
2017-04-15T03:54:05.507Z,19.2
2017-04-15T03:56:04.722Z,19.2
2017-04-15T03:58:05.390Z,19.2
2017-04-15T04:00:05.435Z,19.2
2017-04-15T04:02:04.694Z,19.2
2017-04-15T04:04:05.477Z,19.2
2017-04-15T04:06:10.531Z,19.2
2017-04-15T04:08:07.599Z,19.2
2017-04-15T04:10:07.832Z,19.2
2017-04-15T04:12:05.910Z,19.2
2017-04-15T04:14:05.586Z,19.2
2017-04-15T04:16:04.807Z,19.2
2017-04-15T04:18:04.920Z,19.2
2017-04-15T04:20:05.590Z,19.2
2017-04-15T04:22:05.316Z,19.2
2017-04-15T04:24:05.438Z,19.2
2017-04-15T04:26:05.207Z,19.1
2017-04-15T04:28:05.477Z,19.2
2017-04-15T04:30:07.877Z,19.2
2017-04-15T04:32:07.218Z,19.2
2017-04-15T04:34:04.941Z,19.2
2017-04-15T04:36:05.037Z,19.2
2017-04-15T04:38:07.302Z,19.2
2017-04-15T04:40:05.288Z,19.1
2017-04-15T04:42:05.712Z,19.2
2017-04-15T04:44:04.990Z,19.2
2017-04-15T04:46:04.732Z,19.2
2017-04-15T04:48:05.674Z,19.1
2017-04-15T04:50:04.867Z,19.1
2017-04-15T04:52:05.090Z,19.2
2017-04-15T04:54:08.196Z,19.2
2017-04-15T04:56:05.352Z,19.2
2017-04-15T04:58:05.019Z,19.2
2017-04-15T05:00:05.509Z,19.1
2017-04-15T05:02:05.263Z,19.2
2017-04-15T05:04:05.505Z,19.2
2017-04-15T05:06:05.413Z,19.2
2017-04-15T05:08:05.134Z,19.1
2017-04-15T05:10:04.861Z,19.2
2017-04-15T05:12:05.983Z,19.1
2017-04-15T05:14:05.180Z,19.2
2017-04-15T05:16:04.899Z,19.2
2017-04-15T05:18:05.001Z,19.1
2017-04-15T05:20:05.100Z,19.1
2017-04-15T05:22:07.312Z,19.1
2017-04-15T05:24:05.392Z,19.1
2017-04-15T05:26:07.616Z,19.1
2017-04-15T05:28:05.430Z,19.1
2017-04-15T05:30:05.450Z,19.1
2017-04-15T05:32:09.111Z,19.1
2017-04-15T05:34:05.326Z,19.1
2017-04-15T05:36:05.511Z,19.1
2017-04-15T05:38:04.708Z,19.2
2017-04-15T05:40:05.409Z,19.1
2017-04-15T05:42:05.523Z,19.1
2017-04-15T05:44:05.730Z,19.1
2017-04-15T05:46:05.424Z,19.1
2017-04-15T05:48:05.513Z,19.1
2017-04-15T05:50:05.236Z,19.1
2017-04-15T05:52:05.204Z,19.1
2017-04-15T05:54:07.809Z,19.2
2017-04-15T05:56:05.046Z,19.1
2017-04-15T05:58:04.829Z,19.1
2017-04-15T06:00:05.609Z,19.1
2017-04-15T06:02:07.440Z,19.1
2017-04-15T06:04:05.131Z,19.1
2017-04-15T06:06:05.189Z,19.1
2017-04-15T06:08:07.267Z,19.1
2017-04-15T06:10:05.015Z,19.1
2017-04-15T06:12:07.530Z,19.1
2017-04-15T06:14:05.221Z,19.1
2017-04-15T06:16:05.448Z,19.1
2017-04-15T06:18:05.742Z,19.1
2017-04-15T06:20:07.947Z,19.1
2017-04-15T06:22:05.175Z,19.1
2017-04-15T06:24:10.676Z,19.1
2017-04-15T06:26:07.420Z,19.1
2017-04-15T06:28:09.733Z,19.1
2017-04-15T06:30:08.263Z,19.1
2017-04-15T06:32:05.370Z,19.1
2017-04-15T06:34:05.116Z,19.1
2017-04-15T06:36:04.912Z,19.1
2017-04-15T06:38:07.183Z,19.1
2017-04-15T06:40:04.916Z,19.1
2017-04-15T06:42:05.177Z,19.1
2017-04-15T06:44:10.444Z,19.1
2017-04-15T06:46:07.225Z,19.1
2017-04-15T06:48:05.373Z,19.1
2017-04-15T06:50:05.579Z,19.1
2017-04-15T06:52:05.325Z,19.1
2017-04-15T06:54:05.401Z,19.1
2017-04-15T06:56:05.082Z,19.1
2017-04-15T06:58:04.799Z,19.1
2017-04-15T07:00:05.808Z,19.1
2017-04-15T07:02:05.541Z,19.1
2017-04-15T07:04:05.534Z,19.1
2017-04-15T07:06:08.036Z,19.1
2017-04-15T07:08:07.294Z,19.1
2017-04-15T07:10:05.001Z,19.1
2017-04-15T07:12:04.974Z,19.1
2017-04-15T07:14:07.251Z,19.1
2017-04-15T07:16:05.040Z,19.1
2017-04-15T07:18:05.165Z,19.1
2017-04-15T07:20:05.516Z,19.1
2017-04-15T07:22:05.242Z,19.1
2017-04-15T07:24:05.310Z,19.1
2017-04-15T07:26:05.526Z,19.1
2017-04-15T07:28:13.033Z,19.1
2017-04-15T07:30:05.057Z,19.1
2017-04-15T07:32:07.286Z,19.1
2017-04-15T07:34:05.050Z,19.1
2017-04-15T07:36:04.985Z,19.1
2017-04-15T07:38:04.706Z,19.1
2017-04-15T07:40:07.930Z,19.1
2017-04-15T07:42:04.952Z,19.1
2017-04-15T07:44:04.733Z,19.1
2017-04-15T07:46:08.016Z,19.1
2017-04-15T07:48:05.122Z,19.1
2017-04-15T07:50:04.811Z,19.1
2017-04-15T07:52:05.167Z,19.1
2017-04-15T07:54:05.143Z,19.1
2017-04-15T07:56:04.853Z,19.1
2017-04-15T07:58:05.565Z,19.1
2017-04-15T08:00:08.190Z,19.1
2017-04-15T08:02:04.991Z,19.1
2017-04-15T08:04:04.742Z,19.1
2017-04-15T08:06:05.790Z,19.1
2017-04-15T08:08:05.448Z,19.1
2017-04-15T08:10:07.772Z,19.1
2017-04-15T08:12:05.837Z,19.1
2017-04-15T08:14:05.101Z,19.1
2017-04-15T08:16:04.897Z,19.1
2017-04-15T08:18:05.722Z,19.1
2017-04-15T08:20:07.952Z,19.1
2017-04-15T08:22:04.713Z,19.1
2017-04-15T08:24:05.265Z,19.1
2017-04-15T08:26:04.937Z,19.1
2017-04-15T08:28:06.618Z,19.1
2017-04-15T08:30:05.196Z,19.1
2017-04-15T08:32:04.961Z,19.1
2017-04-15T08:34:12.263Z,19.1
2017-04-15T08:36:05.224Z,19.1
2017-04-15T08:38:04.896Z,19.1
2017-04-15T08:40:07.601Z,19.1
2017-04-15T08:42:05.545Z,19.1
2017-04-15T08:44:05.220Z,19.1
2017-04-15T08:46:04.927Z,19.1
2017-04-15T08:48:04.952Z,19.1
2017-04-15T08:50:04.938Z,19.1
2017-04-15T08:52:04.660Z,19.1
2017-04-15T08:54:05.648Z,19.1
2017-04-15T08:56:07.772Z,19.1
2017-04-15T08:58:07.433Z,19.1
2017-04-15T09:00:04.885Z,19.1
2017-04-15T09:02:05.119Z,19.1
2017-04-15T09:04:04.858Z,19.1
2017-04-15T09:06:10.721Z,19.1
2017-04-15T09:08:05.415Z,19.1
2017-04-15T09:10:07.179Z,19.1
2017-04-15T09:12:07.642Z,19.2
2017-04-15T09:14:05.368Z,19.2
2017-04-15T09:16:05.119Z,19.1
2017-04-15T09:18:07.971Z,19.2
2017-04-15T09:20:04.679Z,19.2
2017-04-15T09:22:05.378Z,19.2
2017-04-15T09:24:05.211Z,19.1
2017-04-15T09:26:04.969Z,19.1
2017-04-15T09:28:05.000Z,19.2
2017-04-15T09:30:05.051Z,19.2
2017-04-15T09:32:04.779Z,19.1
2017-04-15T09:34:04.924Z,19.2
2017-04-15T09:36:05.036Z,19.2
2017-04-15T09:38:04.798Z,19.2
2017-04-15T09:40:05.222Z,19.2
2017-04-15T09:42:07.991Z,19.2
2017-04-15T09:44:05.152Z,19.1
2017-04-15T09:46:07.460Z,19.1
2017-04-15T09:48:05.231Z,19.2
2017-04-15T09:50:05.125Z,19.2
2017-04-15T09:52:04.808Z,19.2
2017-04-15T09:54:05.621Z,19.2
2017-04-15T09:56:04.821Z,19.2
2017-04-15T09:58:13.071Z,19.1
2017-04-15T10:00:05.043Z,19.1
2017-04-15T10:02:04.968Z,19.2
2017-04-15T10:04:05.211Z,19.2
2017-04-15T10:06:05.137Z,19.2
2017-04-15T10:08:07.594Z,19.2
2017-04-15T10:10:08.104Z,19.2
2017-04-15T10:12:05.010Z,19.2
2017-04-15T10:14:12.283Z,19.1
2017-04-15T10:16:06.657Z,19.2
2017-04-15T10:18:05.914Z,19.2
2017-04-15T10:20:04.647Z,19.2
2017-04-15T10:22:13.200Z,19.2
2017-04-15T10:24:05.215Z,19.2
2017-04-15T10:26:04.993Z,19.1
2017-04-15T10:28:04.698Z,19.1
2017-04-15T10:30:08.027Z,19.1
2017-04-15T10:32:04.851Z,19.1
2017-04-15T10:34:08.063Z,19.2
2017-04-15T10:36:13.325Z,19.1
2017-04-15T10:38:05.093Z,19.1
2017-04-15T10:40:14.913Z,19.2
2017-04-15T10:42:04.815Z,19.2
2017-04-15T10:44:07.739Z,19.2
2017-04-15T10:46:05.467Z,19.2
2017-04-15T10:48:05.515Z,19.2
2017-04-15T10:50:04.794Z,19.2
2017-04-15T10:52:10.555Z,19.2
2017-04-15T10:54:05.276Z,19.2
2017-04-15T10:56:04.964Z,19.2
2017-04-15T10:58:04.670Z,19.3
2017-04-15T11:00:05.779Z,19.3
2017-04-15T11:02:07.754Z,19.3
2017-04-15T11:04:05.922Z,19.3
2017-04-15T11:06:04.811Z,19.3
2017-04-15T11:08:05.548Z,19.3
2017-04-15T11:10:07.760Z,19.4
2017-04-15T11:12:05.116Z,19.4
2017-04-15T11:14:04.911Z,19.4
2017-04-15T11:16:05.208Z,19.4
2017-04-15T11:18:05.372Z,19.4
2017-04-15T11:20:06.119Z,19.4
2017-04-15T11:22:04.834Z,19.4
2017-04-15T11:24:08.248Z,19.4
2017-04-15T11:26:05.146Z,19.4
2017-04-15T11:28:05.120Z,19.4
2017-04-15T11:30:07.768Z,19.4
2017-04-15T11:32:05.029Z,19.4
2017-04-15T11:34:05.727Z,19.4
2017-04-15T11:36:05.780Z,19.4
2017-04-15T11:38:05.466Z,19.4
2017-04-15T11:40:07.742Z,19.4
2017-04-15T11:42:06.808Z,19.4
2017-04-15T11:44:09.906Z,19.5
2017-04-15T11:46:05.654Z,19.5
2017-04-15T11:48:05.579Z,19.5
2017-04-15T11:50:05.409Z,19.5
2017-04-15T11:52:05.421Z,19.5
2017-04-15T11:54:05.416Z,19.5
2017-04-15T11:56:05.075Z,19.5
2017-04-15T11:58:05.017Z,19.5
2017-04-15T12:00:07.990Z,19.6
2017-04-15T12:02:09.703Z,19.6
2017-04-15T12:04:05.460Z,19.6
2017-04-15T12:06:05.636Z,19.6
2017-04-15T12:08:08.217Z,19.6
2017-04-15T12:10:05.034Z,19.6
2017-04-15T12:12:12.691Z,19.7
2017-04-15T12:14:07.971Z,19.7
2017-04-15T12:16:09.769Z,19.7
2017-04-15T12:18:04.906Z,19.7
2017-04-15T12:20:08.216Z,19.7
2017-04-15T12:22:09.986Z,19.8
2017-04-15T12:24:05.056Z,19.7
2017-04-15T12:26:04.807Z,19.8
2017-04-15T12:28:05.489Z,19.8
2017-04-15T12:30:05.328Z,19.8
2017-04-15T12:32:05.591Z,19.8
2017-04-15T12:34:05.422Z,19.8
2017-04-15T12:36:05.221Z,19.8
2017-04-15T12:38:04.882Z,19.8
2017-04-15T12:40:05.892Z,19.8
2017-04-15T12:42:05.044Z,19.8
2017-04-15T12:44:04.813Z,19.9
2017-04-15T12:46:05.509Z,19.9
2017-04-15T12:48:05.012Z,19.9
2017-04-15T12:50:04.732Z,19.9
2017-04-15T12:52:05.436Z,19.9
2017-04-15T12:54:05.428Z,19.9
2017-04-15T12:56:05.508Z,19.9
2017-04-15T12:58:05.163Z,19.9
2017-04-15T13:00:04.994Z,19.9
2017-04-15T13:02:05.224Z,20
2017-04-15T13:04:07.435Z,20
2017-04-15T13:06:05.542Z,20
2017-04-15T13:08:05.364Z,20
2017-04-15T13:10:05.110Z,20
2017-04-15T13:12:05.254Z,20
2017-04-15T13:14:05.532Z,20.1
2017-04-15T13:16:05.267Z,20.1
2017-04-15T13:18:05.447Z,20.1
2017-04-15T13:20:07.650Z,20.1
2017-04-15T13:22:05.335Z,20.1
2017-04-15T13:24:05.728Z,20.1
2017-04-15T13:26:05.455Z,20.1
2017-04-15T13:28:05.462Z,20.1
2017-04-15T13:30:10.562Z,20.1
2017-04-15T13:32:04.785Z,20.1
2017-04-15T13:34:05.485Z,20.1
2017-04-15T13:36:07.872Z,20.1
2017-04-15T13:38:05.554Z,20.1
2017-04-15T13:40:05.555Z,20.1
2017-04-15T13:42:05.039Z,20.1
2017-04-15T13:44:05.113Z,20.1
2017-04-15T13:46:04.789Z,20.1
2017-04-15T13:48:10.889Z,20.1
2017-04-15T13:50:04.593Z,20.2
2017-04-15T13:52:05.268Z,20.2
2017-04-15T13:54:07.758Z,20.2
2017-04-15T13:56:05.417Z,20.2
2017-04-15T13:58:04.818Z,20.2
2017-04-15T14:00:05.804Z,20.2
2017-04-15T14:02:05.545Z,20.2
2017-04-15T14:04:05.253Z,20.2
2017-04-15T14:06:05.242Z,20.3
2017-04-15T14:08:05.041Z,20.3
2017-04-15T14:10:04.730Z,20.3
2017-04-15T14:12:05.310Z,20.3
2017-04-15T14:14:05.092Z,20.3
2017-04-15T14:16:05.143Z,20.3
2017-04-15T14:18:05.187Z,20.3
2017-04-15T14:20:07.424Z,20.3
2017-04-15T14:22:04.698Z,20.2
2017-04-15T14:24:05.581Z,20.3
2017-04-15T14:26:05.314Z,20.3
2017-04-15T14:28:05.514Z,20.3
2017-04-15T14:30:05.353Z,20.3
2017-04-15T14:32:05.282Z,20.3
2017-04-15T14:34:04.968Z,20.3
2017-04-15T14:36:04.814Z,20.3
2017-04-15T14:38:05.578Z,20.3
2017-04-15T14:40:05.306Z,20.4
2017-04-15T14:42:05.171Z,20.4
2017-04-15T14:44:04.956Z,20.4
2017-04-15T14:46:04.678Z,20.4
2017-04-15T14:48:05.787Z,20.4
2017-04-15T14:50:05.270Z,20.4
2017-04-15T14:52:05.090Z,20.4
2017-04-15T14:54:05.016Z,20.4
2017-04-15T14:56:04.720Z,20.4
2017-04-15T14:58:07.168Z,20.4
2017-04-15T15:00:05.071Z,20.4
2017-04-15T15:02:07.281Z,20.4
2017-04-15T15:04:05.268Z,20.4
2017-04-15T15:06:05.649Z,20.4
2017-04-15T15:08:09.952Z,20.4
2017-04-15T15:10:04.665Z,20.4
2017-04-15T15:12:05.653Z,20.4
2017-04-15T15:14:05.389Z,20.4
2017-04-15T15:16:05.695Z,20.4
2017-04-15T15:18:05.743Z,20.4
2017-04-15T15:20:05.594Z,20.4
2017-04-15T15:22:05.317Z,20.4
2017-04-15T15:24:05.282Z,20.4
2017-04-15T15:26:04.966Z,20.4
2017-04-15T15:28:07.361Z,20.4
2017-04-15T15:30:05.216Z,20.4
2017-04-15T15:32:08.075Z,20.4
2017-04-15T15:34:04.785Z,20.4
2017-04-15T15:36:05.889Z,20.4
2017-04-15T15:38:07.639Z,20.4
2017-04-15T15:40:05.474Z,20.4
2017-04-15T15:42:08.022Z,20.4
2017-04-15T15:44:07.268Z,20.5
2017-04-15T15:46:07.987Z,20.5
2017-04-15T15:48:07.613Z,20.4
2017-04-15T15:50:04.754Z,20.4
2017-04-15T15:52:08.251Z,20.5
2017-04-15T15:54:05.151Z,20.5
2017-04-15T15:56:12.495Z,20.5
2017-04-15T15:58:05.288Z,20.5
2017-04-15T16:00:05.196Z,20.5
2017-04-15T16:02:05.130Z,20.5
2017-04-15T16:04:05.540Z,20.6
2017-04-15T16:06:05.724Z,20.5
2017-04-15T16:08:07.866Z,20.6
2017-04-15T16:10:04.627Z,20.6
2017-04-15T16:12:05.109Z,20.6
2017-04-15T16:14:04.901Z,20.6
2017-04-15T16:16:04.688Z,20.6
2017-04-15T16:18:04.836Z,20.6
2017-04-15T16:20:04.658Z,20.6
2017-04-15T16:22:05.462Z,20.6
2017-04-15T16:24:15.130Z,20.6
2017-04-15T16:26:04.823Z,20.6
2017-04-15T16:28:09.748Z,20.6
2017-04-15T16:30:08.410Z,20.6
2017-04-15T16:32:05.147Z,20.6
2017-04-15T16:34:05.139Z,20.6
2017-04-15T16:36:05.305Z,20.6
2017-04-15T16:38:05.127Z,20.7
2017-04-15T16:40:05.400Z,20.6
2017-04-15T16:42:05.398Z,20.6
2017-04-15T16:44:05.326Z,20.7
2017-04-15T16:46:10.136Z,20.6
2017-04-15T16:48:05.054Z,20.6
2017-04-15T16:50:04.785Z,20.6
2017-04-15T16:52:05.078Z,20.5
2017-04-15T16:54:05.078Z,20.5
2017-04-15T16:56:05.430Z,20.5
2017-04-15T16:58:05.186Z,20.4
2017-04-15T17:00:07.717Z,20.4
2017-04-15T17:02:05.446Z,20.4
2017-04-15T17:04:05.218Z,20.4
2017-04-15T17:06:07.548Z,20.4
2017-04-15T17:08:05.284Z,20.3
2017-04-15T17:10:05.064Z,20.3
2017-04-15T17:12:05.211Z,20.3
2017-04-15T17:14:05.026Z,20.3
2017-04-15T17:16:04.852Z,20.3
2017-04-15T17:18:05.083Z,20.3
2017-04-15T17:20:07.320Z,20.2
2017-04-15T17:22:05.182Z,20.2
2017-04-15T17:24:05.001Z,20.2
2017-04-15T17:26:04.775Z,20.2
2017-04-15T17:28:07.562Z,20.1
2017-04-15T17:30:05.693Z,20.1
2017-04-15T17:32:05.407Z,20.1
2017-04-15T17:34:07.621Z,20.1
2017-04-15T17:36:05.770Z,20.1
2017-04-15T17:38:04.617Z,20.1
2017-04-15T17:40:04.921Z,20.1
2017-04-15T17:42:05.318Z,20.1
2017-04-15T17:44:08.030Z,20.1
2017-04-15T17:46:04.888Z,20.1
2017-04-15T17:48:05.752Z,20.1
2017-04-15T17:50:05.480Z,20
2017-04-15T17:52:05.525Z,20
2017-04-15T17:54:05.566Z,20
2017-04-15T17:56:05.302Z,20
2017-04-15T17:58:05.150Z,20
2017-04-15T18:00:05.881Z,20
2017-04-15T18:02:05.187Z,20
2017-04-15T18:04:07.469Z,20
2017-04-15T18:06:05.001Z,20
2017-04-15T18:08:05.310Z,20
2017-04-15T18:10:12.650Z,19.9
2017-04-15T18:12:08.263Z,19.9
2017-04-15T18:14:04.980Z,19.9
2017-04-15T18:16:05.089Z,19.9
2017-04-15T18:18:05.409Z,19.9
2017-04-15T18:20:05.094Z,19.9
2017-04-15T18:22:04.860Z,19.9
2017-04-15T18:24:05.795Z,19.8
2017-04-15T18:26:05.128Z,19.8
2017-04-15T18:28:09.938Z,19.8
2017-04-15T18:30:04.896Z,19.8
2017-04-15T18:32:05.948Z,19.8
2017-04-15T18:34:04.749Z,19.8
2017-04-15T18:36:05.777Z,19.8
2017-04-15T18:38:08.047Z,19.8
2017-04-15T18:40:04.798Z,19.8
2017-04-15T18:42:05.692Z,19.8
2017-04-15T18:44:13.097Z,19.8
2017-04-15T18:46:04.830Z,19.8
2017-04-15T18:48:05.610Z,19.8
2017-04-15T18:50:05.261Z,19.8
2017-04-15T18:52:04.969Z,19.8
2017-04-15T18:54:07.498Z,19.8
2017-04-15T18:56:05.279Z,19.8
2017-04-15T18:58:04.937Z,19.8
2017-04-15T19:00:04.959Z,19.8
2017-04-15T19:02:04.825Z,19.8
2017-04-15T19:04:05.438Z,19.8
2017-04-15T19:06:04.915Z,19.8
2017-04-15T19:08:07.175Z,19.9
2017-04-15T19:10:07.431Z,19.9
2017-04-15T19:12:05.605Z,19.9
2017-04-15T19:14:07.999Z,20
2017-04-15T19:16:04.757Z,20
2017-04-15T19:18:05.513Z,20.1
2017-04-15T19:20:07.868Z,20.1
2017-04-15T19:22:05.524Z,20.2
2017-04-15T19:24:07.520Z,20.3
2017-04-15T19:26:05.202Z,20.2
2017-04-15T19:28:05.252Z,20.3
2017-04-15T19:30:08.158Z,20.4
2017-04-15T19:32:05.604Z,20.4
2017-04-15T19:34:07.395Z,20.4
2017-04-15T19:36:05.545Z,20.4
2017-04-15T19:38:05.927Z,20.4
2017-04-15T19:40:04.973Z,20.5
2017-04-15T19:42:05.063Z,20.5
2017-04-15T19:44:07.393Z,20.5
2017-04-15T19:46:05.182Z,20.5
2017-04-15T19:48:07.556Z,20.6
2017-04-15T19:50:05.357Z,20.6
2017-04-15T19:52:09.778Z,20.6
2017-04-15T19:54:05.724Z,20.7
2017-04-15T19:56:04.802Z,20.7
2017-04-15T19:58:07.591Z,20.7
2017-04-15T20:00:05.758Z,20.7
2017-04-15T20:02:07.994Z,20.7
2017-04-15T20:04:04.811Z,20.8
2017-04-15T20:06:10.717Z,20.8
2017-04-15T20:08:05.755Z,20.8
2017-04-15T20:10:13.071Z,20.8
2017-04-15T20:12:08.158Z,20.8
2017-04-15T20:14:10.666Z,20.8
2017-04-15T20:16:05.530Z,20.8
2017-04-15T20:18:05.709Z,20.8
2017-04-15T20:20:05.434Z,20.8
2017-04-15T20:22:07.677Z,20.9
2017-04-15T20:24:05.832Z,20.9
2017-04-15T20:26:04.851Z,20.9
2017-04-15T20:28:05.469Z,20.9
2017-04-15T20:30:05.525Z,20.9
2017-04-15T20:32:05.259Z,20.9
2017-04-15T20:34:05.546Z,20.9
2017-04-15T20:36:05.514Z,21
2017-04-15T20:38:07.881Z,21
2017-04-15T20:40:05.776Z,21
2017-04-15T20:42:09.847Z,21
2017-04-15T20:44:04.699Z,21
2017-04-15T20:46:05.404Z,21
2017-04-15T20:48:05.606Z,21
2017-04-15T20:50:06.143Z,21
2017-04-15T20:52:05.060Z,21
2017-04-15T20:54:05.016Z,21.1
2017-04-15T20:56:04.937Z,21.1
2017-04-15T20:58:04.766Z,21.1
2017-04-15T21:00:08.420Z,21.1
2017-04-15T21:02:05.203Z,21.1
2017-04-15T21:04:07.515Z,21.2
2017-04-15T21:06:05.557Z,21.2
2017-04-15T21:08:05.544Z,21.2
2017-04-15T21:10:05.384Z,21.2
2017-04-15T21:12:08.297Z,21.2
2017-04-15T21:14:05.029Z,21.2
2017-04-15T21:16:07.495Z,21.3
2017-04-15T21:18:05.416Z,21.2
2017-04-15T21:20:05.529Z,21.3
2017-04-15T21:22:05.403Z,21.3
2017-04-15T21:24:05.339Z,21.3
2017-04-15T21:26:07.565Z,21.3
2017-04-15T21:28:07.562Z,21.4
2017-04-15T21:30:05.484Z,21.3
2017-04-15T21:32:05.271Z,21.3
2017-04-15T21:34:05.069Z,21.4
2017-04-15T21:36:05.761Z,21.4
2017-04-15T21:38:05.585Z,21.4
2017-04-15T21:40:10.396Z,21.4
2017-04-15T21:42:06.068Z,21.4
2017-04-15T21:44:05.157Z,21.4
2017-04-15T21:46:05.169Z,21.4
2017-04-15T21:48:05.331Z,21.4
2017-04-15T21:50:05.123Z,21.4
2017-04-15T21:52:07.396Z,21.4
2017-04-15T21:54:05.445Z,21.4
2017-04-15T21:56:05.039Z,21.5
2017-04-15T21:58:07.388Z,21.5
2017-04-15T22:00:07.996Z,21.5
2017-04-15T22:02:04.938Z,21.5
2017-04-15T22:04:04.692Z,21.5
2017-04-15T22:06:05.733Z,21.5
2017-04-15T22:08:05.558Z,21.5
2017-04-15T22:10:05.313Z,21.5
2017-04-15T22:12:05.288Z,21.5
2017-04-15T22:14:07.554Z,21.5
2017-04-15T22:16:05.675Z,21.5
2017-04-15T22:18:05.717Z,21.5
2017-04-15T22:20:05.404Z,21.5
2017-04-15T22:22:05.180Z,21.6
2017-04-15T22:24:05.045Z,21.5
2017-04-15T22:26:04.936Z,21.6
2017-04-15T22:28:04.793Z,21.6
2017-04-15T22:30:05.629Z,21.6
2017-04-15T22:32:05.749Z,21.6
2017-04-15T22:34:05.545Z,21.6
2017-04-15T22:36:07.103Z,21.6
2017-04-15T22:38:05.550Z,21.6
2017-04-15T22:40:05.312Z,21.6
2017-04-15T22:42:07.863Z,21.6
2017-04-15T22:44:08.206Z,21.6
2017-04-15T22:46:05.060Z,21.6
2017-04-15T22:48:05.131Z,21.6
2017-04-15T22:50:07.131Z,21.7
2017-04-15T22:52:05.026Z,21.7
2017-04-15T22:54:07.925Z,21.7
2017-04-15T22:56:07.737Z,21.7
2017-04-15T22:58:05.048Z,21.7
2017-04-15T23:00:05.086Z,21.7
2017-04-15T23:02:04.844Z,21.7
2017-04-15T23:04:04.968Z,21.7
2017-04-15T23:06:10.110Z,21.8
2017-04-15T23:08:04.887Z,21.8
2017-04-15T23:10:05.561Z,21.8
2017-04-15T23:12:08.073Z,21.8
2017-04-15T23:14:04.906Z,21.8
2017-04-15T23:16:08.111Z,21.8
2017-04-15T23:18:05.324Z,21.8
2017-04-15T23:20:05.505Z,21.8
2017-04-15T23:22:05.226Z,21.8
2017-04-15T23:24:05.218Z,21.8
2017-04-15T23:26:04.981Z,21.8
2017-04-15T23:28:04.867Z,21.8
2017-04-15T23:30:05.865Z,21.8
2017-04-15T23:32:05.528Z,21.8
2017-04-15T23:34:05.418Z,21.8
2017-04-15T23:36:05.201Z,21.8
2017-04-15T23:38:04.952Z,21.9
2017-04-15T23:40:04.747Z,21.9
2017-04-15T23:42:06.186Z,21.9
2017-04-15T23:44:07.425Z,21.9
2017-04-15T23:46:07.211Z,21.9
2017-04-15T23:48:10.459Z,21.9
2017-04-15T23:50:04.758Z,21.9
2017-04-15T23:52:05.828Z,21.9
2017-04-15T23:54:05.743Z,21.9
2017-04-15T23:56:05.522Z,21.9
2017-04-15T23:58:05.306Z,21.9
